Time;durP1;ratioP1;P1;durP2;ratioP2;P2;SDS_P1;SDS_P2;PMS_P1;PMS_P2;Temp;Humidity;BMP_temperature;BMP_pressure;BME280_temperature;BME280_humidity;BME280_pressure;Samples;Min_cycle;Max_cycle;Signal;HPM_P1;HPM_P2
2023/02/15 00:02:04;;;;;;;27.93;18.13;;;;;;;-2.14;100.00;97563.84;6223312;22;20034;-93
2023/02/15 00:04:48;;;;;;;31.10;18.07;;;;;;;-2.25;100.00;97560.75;6198519;22;21365;-93
2023/02/15 00:07:17;;;;;;;;;;;;;;;-2.29;100.00;97561.75;6196956;22;20444;-93
2023/02/15 00:09:44;;;;;;;30.90;17.47;;;;;;;-2.31;100.00;97565.25;6196400;22;19907;-93
2023/02/15 00:12:10;;;;;;;31.77;17.63;;;;;;;-2.24;100.00;97561.63;6196992;22;20492;-93
2023/02/15 00:14:38;;;;;;;29.07;17.87;;;;;;;-2.22;100.00;97559.81;6220278;22;21215;-93
2023/02/15 00:17:04;;;;;;;29.43;17.37;;;;;;;-2.20;100.00;97563.19;6194118;22;20085;-92
2023/02/15 00:19:31;;;;;;;30.13;18.13;;;;;;;-2.23;100.00;97563.28;6202757;22;20414;-93
2023/02/15 00:21:57;;;;;;;31.93;17.57;;;;;;;-2.29;100.00;97558.34;6180273;22;20045;-93
2023/02/15 00:24:23;;;;;;;31.57;19.23;;;;;;;-2.39;100.00;97558.59;6206157;22;20426;-93
2023/02/15 00:26:49;;;;;;;32.20;18.47;;;;;;;-2.35;100.00;97558.50;6195363;22;20011;-93
2023/02/15 00:29:17;;;;;;;31.13;19.47;;;;;;;-2.39;100.00;97545.72;6194379;22;20015;-93
2023/02/15 00:31:46;;;;;;;36.13;20.70;;;;;;;-2.39;100.00;97548.31;6194088;22;20406;-93
2023/02/15 00:34:17;;;;;;;31.67;18.93;;;;;;;-2.38;100.00;97546.59;6192401;22;20810;-93
2023/02/15 00:36:43;;;;;;;32.10;19.30;;;;;;;-2.36;100.00;97547.38;6191556;22;20411;-93
2023/02/15 00:39:09;;;;;;;29.33;18.53;;;;;;;-2.44;100.00;97550.19;6192714;22;21449;-93
2023/02/15 00:41:36;;;;;;;31.10;18.33;;;;;;;-2.43;100.00;97543.31;6191673;22;20402;-93
2023/02/15 00:44:04;;;;;;;30.63;18.60;;;;;;;-2.47;100.00;97540.00;6191067;22;20511;-94
2023/02/15 00:46:30;;;;;;;32.50;18.87;;;;;;;-2.48;100.00;97538.31;6217523;22;20529;-93
2023/02/15 00:49:03;;;;;;;30.50;18.87;;;;;;;-2.43;100.00;97535.56;6192858;22;20445;-93
2023/02/15 00:51:30;;;;;;;34.70;20.10;;;;;;;-2.43;100.00;97540.72;6206098;22;20034;-93
2023/02/15 00:53:56;;;;;;;31.40;18.90;;;;;;;-2.50;100.00;97539.25;6220506;22;20438;-92
2023/02/15 00:56:22;;;;;;;33.60;19.53;;;;;;;-2.51;100.00;97535.00;6246680;22;20544;-93
2023/02/15 00:58:49;;;;;;;33.70;21.47;;;;;;;-2.59;100.00;97537.78;6222243;22;20011;-93
2023/02/15 01:01:18;;;;;;;32.67;18.93;;;;;;;-2.53;100.00;97535.00;6220701;22;20127;-93
2023/02/15 01:03:46;;;;;;;32.30;18.63;;;;;;;-2.49;100.00;97535.75;6221323;22;20406;-92
2023/02/15 01:06:14;;;;;;;35.13;19.77;;;;;;;-2.53;100.00;97529.03;6227251;22;20450;-96
2023/02/15 01:38:27;;;;;;;30.43;17.73;;;;;;;-2.61;100.00;97512.09;6183898;23;20525;-85
2023/02/15 01:41:20;;;;;;;32.07;18.90;;;;;;;-2.58;100.00;97511.16;6159018;23;20452;-86
2023/02/15 01:44:01;;;;;;;31.33;18.60;;;;;;;-2.61;100.00;97496.63;6158815;23;20012;-87
2023/02/15 01:46:51;;;;;;;30.83;17.77;;;;;;;-2.73;100.00;97502.16;6158667;23;20443;-87
2023/02/15 01:49:20;;;;;;;30.03;17.93;;;;;;;-2.66;100.00;97498.50;6159351;23;20420;-87
2023/02/15 01:51:50;;;;;;;29.07;17.83;;;;;;;-2.54;100.00;97499.03;6157849;23;20481;-88
2023/02/15 01:54:24;;;;;;;29.13;17.83;;;;;;;-2.58;100.00;97499.97;6158287;23;20451;-87
2023/02/15 01:56:50;;;;;;;31.30;18.20;;;;;;;-2.66;100.00;97493.34;6159190;23;20427;-87
2023/02/15 01:59:21;;;;;;;34.30;19.37;;;;;;;-2.58;100.00;97494.84;6157505;23;20451;-87
2023/02/15 02:01:50;;;;;;;30.63;18.13;;;;;;;-2.58;100.00;97502.56;6157844;23;20966;-87
2023/02/15 02:04:28;;;;;;;29.90;18.23;;;;;;;-2.56;100.00;97487.91;6158539;23;20494;-88
2023/02/15 02:06:57;;;;;;;29.87;18.03;;;;;;;-2.36;100.00;97495.84;6159210;23;20953;-87
2023/02/15 02:09:23;;;;;;;26.50;16.97;;;;;;;-2.35;100.00;97494.09;6159228;23;20431;-88
2023/02/15 02:11:49;;;;;;;28.67;16.67;;;;;;;-2.40;100.00;97495.09;6183513;23;20422;-87
2023/02/15 02:14:17;;;;;;;28.20;16.73;;;;;;;-2.52;100.00;97489.50;6158994;23;20431;-86
2023/02/15 02:17:12;;;;;;;28.10;16.73;;;;;;;-2.49;100.00;97489.41;6159487;23;20043;-86
2023/02/15 02:19:58;;;;;;;26.47;16.20;;;;;;;-2.58;100.00;97484.53;6158877;23;20481;-88
2023/02/15 02:22:40;;;;;;;29.37;16.80;;;;;;;-2.51;100.00;97494.63;6165041;23;20423;-87
2023/02/15 02:25:45;;;;;;;24.63;15.40;;;;;;;-2.51;100.00;97494.63;6190322;23;20423;-87
2023/02/15 02:28:10;;;;;;;26.33;15.60;;;;;;;-2.52;100.00;97492.06;6167790;23;20404;-87
2023/02/15 02:31:17;;;;;;;27.73;15.83;;;;;;;-2.52;100.00;97502.38;6157642;23;20410;-88
2023/02/15 02:33:53;;;;;;;28.03;16.20;;;;;;;-2.55;100.00;97481.88;6160941;23;20095;-88
2023/02/15 02:37:01;;;;;;;30.83;17.63;;;;;;;-2.55;100.00;97484.44;6159339;23;20733;-88
2023/02/15 02:42:55;;;;;;;27.00;15.13;;;;;;;-2.74;100.00;97492.75;6086857;23;21105;-86
2023/02/15 02:45:39;;;;;;;28.07;16.63;;;;;;;-2.80;100.00;97498.06;6149798;23;20408;-89
2023/02/15 02:48:13;;;;;;;;;;;;;;;-2.81;100.00;97498.97;6138763;23;20515;-87
2023/02/15 02:50:40;;;;;;;27.40;17.67;;;;;;;-2.88;100.00;97494.91;6136144;23;19908;-87
2023/02/15 02:53:05;;;;;;;29.80;18.40;;;;;;;-2.93;100.00;97489.88;6137848;23;20423;-88
2023/02/15 02:55:38;;;;;;;28.90;16.80;;;;;;;-2.91;100.00;97487.28;6137912;23;21023;-88
2023/02/15 02:58:10;;;;;;;30.38;17.45;;;;;;;-2.90;100.00;97488.94;6137210;23;20078;-88
2023/02/15 03:00:42;;;;;;;30.23;17.13;;;;;;;-2.87;100.00;97500.00;6161886;23;20009;-88
2023/02/15 03:03:20;;;;;;;28.70;17.50;;;;;;;-2.88;100.00;97489.75;6144255;23;20494;-88
2023/02/15 03:05:53;;;;;;;33.03;18.37;;;;;;;-2.85;100.00;97487.06;6140669;23;20470;-88
2023/02/15 03:08:27;;;;;;;31.23;19.47;;;;;;;-2.84;100.00;97483.63;6141154;23;20416;-88
2023/02/15 03:10:56;;;;;;;31.93;17.90;;;;;;;-2.86;100.00;97487.97;6139624;23;20422;-88
2023/02/15 03:13:23;;;;;;;32.50;19.47;;;;;;;-2.90;100.00;97483.81;6147778;23;20410;-87
2023/02/15 03:18:57;;;;;;;30.97;18.33;;;;;;;-2.93;100.00;97481.31;6186951;23;20408;-88
2023/02/15 03:21:35;;;;;;;34.27;18.90;;;;;;;-2.95;100.00;97476.22;6161387;23;20428;-88
2023/02/15 03:24:20;;;;;;;32.33;19.27;;;;;;;-2.92;100.00;97480.41;6162115;23;20501;-88
2023/02/15 03:26:51;;;;;;;30.80;18.40;;;;;;;-2.90;100.00;97481.22;6161297;23;20416;-87
2023/02/15 03:29:22;;;;;;;27.77;17.80;;;;;;;-3.04;100.00;97476.50;6160567;23;20827;-87
2023/02/15 03:32:00;;;;;;;25.40;14.45;;;;;;;-3.00;100.00;97472.09;6162090;23;20883;-88
2023/02/15 03:34:28;;;;;;;33.57;19.07;;;;;;;-3.02;100.00;97474.69;6160586;23;20176;-87
2023/02/15 03:37:05;;;;;;;29.90;19.40;;;;;;;-3.08;100.00;97465.44;6152784;23;20748;-88
2023/02/15 03:39:42;;;;;;;30.73;17.60;;;;;;;-3.09;100.00;97471.47;6162495;23;20416;-88
2023/02/15 03:42:32;;;;;;;32.87;18.03;;;;;;;-3.17;100.00;97475.16;6177695;23;20423;-87
2023/02/15 03:45:17;;;;;;;29.00;18.40;;;;;;;-3.16;100.00;97469.13;6185713;23;20412;-87
2023/02/15 03:47:49;;;;;;;29.63;17.90;;;;;;;-3.18;100.00;97466.63;6186367;23;20423;-88
2023/02/15 03:53:11;;;;;;;30.30;18.73;;;;;;;-3.23;100.00;97465.88;6187166;23;20012;-87
2023/02/15 03:55:36;;;;;;;31.90;18.37;;;;;;;-3.18;100.00;97469.19;6162358;23;20427;-87
2023/02/15 04:04:06;;;;;;;36.87;19.83;;;;;;;-3.19;100.00;97461.50;6184194;23;20443;-87
2023/02/15 04:06:31;;;;;;;34.67;19.33;;;;;;;-3.22;100.00;97466.72;6160124;23;20539;-87
2023/02/15 04:11:42;;;;;;;34.83;19.70;;;;;;;-3.27;100.00;97469.44;6173506;23;20048;-86
2023/02/15 04:16:52;;;;;;;31.20;18.97;;;;;;;-3.29;100.00;97462.66;6173762;23;20427;-87
2023/02/15 04:27:31;;;;;;;30.93;18.50;;;;;;;-3.28;100.00;97451.50;6173339;23;20458;-87
2023/02/15 04:29:57;;;;;;;32.87;19.20;;;;;;;-3.25;100.00;97454.81;6148710;23;21322;-87
2023/02/15 04:32:22;;;;;;;33.73;19.83;;;;;;;-3.32;100.00;97453.28;6148524;23;20016;-87
2023/02/15 04:34:48;;;;;;;34.13;19.67;;;;;;;-3.32;100.00;97455.84;6148777;23;20013;-87
2023/02/15 04:37:13;;;;;;;31.77;19.77;;;;;;;-3.34;100.00;97457.66;6152399;23;20417;-87
2023/02/15 04:39:39;;;;;;;35.40;20.17;;;;;;;-3.38;100.00;97453.50;6157847;23;20437;-88
2023/02/15 04:42:05;;;;;;;33.90;18.47;;;;;;;-3.33;100.00;97449.88;6158357;23;20055;-88
2023/02/15 04:44:31;;;;;;;34.40;19.17;;;;;;;-3.33;100.00;97444.72;6158536;23;20004;-88
2023/02/15 04:46:57;;;;;;;27.00;18.43;;;;;;;-3.35;100.00;97453.41;6158847;23;20063;-87
2023/02/15 04:49:23;;;;;;;28.07;17.87;;;;;;;-3.32;100.00;97451.59;6158490;23;20771;-89
2023/02/15 04:51:48;;;;;;;30.23;18.60;;;;;;;-3.28;100.00;97452.34;6165587;23;20016;-90
2023/02/15 04:54:14;;;;;;;30.57;17.93;;;;;;;-3.27;100.00;97441.16;6169989;23;20008;-90
2023/02/15 04:56:40;;;;;;;31.03;18.93;;;;;;;-3.24;100.00;97446.22;6161319;23;20646;-88
2023/02/15 04:59:06;;;;;;;30.77;18.70;;;;;;;-3.31;100.00;97437.00;6183741;23;20039;-89
2023/02/15 05:01:31;;;;;;;34.37;18.50;;;;;;;-3.28;100.00;97436.91;6159307;23;20048;-89
2023/02/15 05:04:07;;;;;;;30.03;17.97;;;;;;;-3.27;100.00;97436.00;6160575;23;20411;-89
2023/02/15 05:06:33;;;;;;;34.60;19.67;;;;;;;-3.32;100.00;97436.16;6159329;23;20009;-89
2023/02/15 05:08:59;;;;;;;30.73;18.73;;;;;;;-3.33;100.00;97429.31;6185322;23;20453;-90
2023/02/15 05:11:25;;;;;;;29.30;17.40;;;;;;;-3.26;100.00;97434.28;6159367;23;20020;-89
2023/02/15 05:13:55;;;;;;;29.40;17.87;;;;;;;-3.23;100.00;97432.44;6161075;23;20598;-89
2023/02/15 05:16:23;;;;;;;30.57;18.23;;;;;;;-3.14;100.00;97444.22;6160871;23;20427;-90
2023/02/15 05:18:57;;;;;;;27.27;16.37;;;;;;;-3.22;100.00;97444.44;6160880;23;20412;-90
2023/02/15 05:21:24;;;;;;;27.53;17.83;;;;;;;-3.10;100.00;97446.63;6162773;23;20420;-91
2023/02/15 05:23:50;;;;;;;27.57;17.87;;;;;;;-3.18;100.00;97443.47;6163947;23;20477;-92
2023/02/15 05:29:09;;;;;;;31.97;19.77;;;;;;;-3.18;100.00;97442.63;6187914;23;20590;-92
2023/02/15 05:31:36;;;;;;;83.17;42.07;;;;;;;-3.25;100.00;97441.09;6163581;23;20411;-89
2023/02/15 05:34:22;;;;;;;31.90;19.37;;;;;;;-3.27;100.00;97435.16;6188180;23;20455;-90
2023/02/15 05:36:47;;;;;;;32.57;18.70;;;;;;;-3.37;100.00;97435.44;6163904;23;20435;-90
2023/02/15 05:39:18;;;;;;;29.97;18.40;;;;;;;-3.36;100.00;97431.97;6163154;23;20082;-90
2023/02/15 05:41:46;;;;;;;29.77;18.00;;;;;;;-3.32;100.00;97431.00;6163990;23;20403;-90
2023/02/15 05:44:24;;;;;;;30.27;18.70;;;;;;;-3.33;100.00;97441.31;6167351;23;20416;-90
2023/02/15 05:46:50;;;;;;;32.23;20.47;;;;;;;-3.31;100.00;97437.00;6164551;23;20434;-90
2023/02/15 05:49:35;;;;;;;32.73;19.63;;;;;;;-3.25;100.00;97441.97;6163352;23;20677;-90
2023/02/15 05:52:16;;;;;;;30.60;18.57;;;;;;;-3.26;100.00;97440.25;6163145;23;20036;-90
2023/02/15 05:54:57;;;;;;;28.07;16.73;;;;;;;-3.22;100.00;97444.44;6161027;23;20454;-87
2023/02/15 05:57:28;;;;;;;25.43;15.40;;;;;;;-3.19;100.00;97446.06;6184407;23;20453;-86
2023/02/15 05:59:54;;;;;;;28.00;16.27;;;;;;;-3.26;100.00;97453.13;6161160;23;21118;-86
2023/02/15 06:02:20;;;;;;;27.33;16.30;;;;;;;-3.22;100.00;97452.16;6164374;23;20448;-86
2023/02/15 06:04:49;;;;;;;25.00;15.27;;;;;;;-3.26;100.00;97447.97;6164592;23;20013;-86
2023/02/15 06:07:14;;;;;;;26.80;15.97;;;;;;;-3.27;100.00;97451.44;6165369;23;20016;-85
2023/02/15 06:09:40;;;;;;;24.73;16.10;;;;;;;-3.29;100.00;97453.19;6166953;23;20442;-85
2023/02/15 06:12:06;;;;;;;26.80;16.97;;;;;;;-3.33;100.00;97449.03;6193086;23;20390;-86
2023/02/15 06:14:34;;;;;;;25.13;15.17;;;;;;;-3.35;100.00;97464.53;6169215;23;20016;-85
2023/02/15 06:17:00;;;;;;;25.80;15.93;;;;;;;-3.37;100.00;97455.16;6184445;23;19993;-87
2023/02/15 06:19:26;;;;;;;25.50;15.07;;;;;;;-3.32;100.00;97461.00;6188403;23;20426;-87
2023/02/15 06:21:51;;;;;;;24.13;15.97;;;;;;;-3.30;100.00;97463.56;6182915;23;20021;-86
2023/02/15 06:24:17;;;;;;;23.87;15.30;;;;;;;-3.33;100.00;97461.91;6161260;23;20336;-86
2023/02/15 06:26:43;;;;;;;23.30;14.50;;;;;;;-3.29;100.00;97460.91;6162304;23;20057;-86
2023/02/15 06:29:19;;;;;;;23.70;15.17;;;;;;;-3.39;100.00;97459.50;6166357;23;20066;-87
2023/02/15 06:31:44;;;;;;;22.40;13.63;;;;;;;-3.35;100.00;97461.97;6162934;23;20363;-87
2023/02/15 06:34:10;;;;;;;26.37;15.90;;;;;;;-3.39;100.00;97462.06;6168281;23;20519;-87
2023/02/15 06:36:58;;;;;;;22.67;14.40;;;;;;;-3.36;100.00;97464.56;6161441;23;20348;-87
2023/02/15 06:39:24;;;;;;;24.53;14.67;;;;;;;-3.39;100.00;97462.91;6161116;23;20443;-87
2023/02/15 06:41:54;;;;;;;26.67;15.13;;;;;;;-3.37;100.00;97466.28;6151408;23;20427;-86
2023/02/15 06:44:19;;;;;;;23.63;14.67;;;;;;;-3.37;100.00;97462.88;6158738;23;20420;-88
2023/02/15 06:46:45;;;;;;;25.90;15.47;;;;;;;-3.34;100.00;97461.06;6160689;23;20439;-87
2023/02/15 06:49:11;;;;;;;22.87;13.83;;;;;;;-3.29;100.00;97465.22;6161549;23;20019;-87
2023/02/15 06:51:46;;;;;;;25.37;15.50;;;;;;;-3.22;100.00;97466.72;6160850;23;20020;-87
2023/02/15 06:54:12;;;;;;;23.47;15.23;;;;;;;-3.14;100.00;97470.78;6161355;23;20454;-87
2023/02/15 06:56:46;;;;;;;25.33;16.20;;;;;;;-3.05;100.00;97466.22;6160092;23;20427;-87
2023/02/15 06:59:11;;;;;;;23.07;14.37;;;;;;;-3.00;100.00;97467.78;6186244;23;20021;-87
2023/02/15 07:01:38;;;;;;;25.27;14.97;;;;;;;-2.86;100.00;97470.78;6159290;23;20427;-87
2023/02/15 07:04:04;;;;;;;22.77;14.70;;;;;;;-2.87;100.00;97478.56;6159375;23;20008;-86
2023/02/15 07:06:33;;;;;;;24.87;14.77;;;;;;;-2.73;100.00;97466.09;6160894;23;20526;-87
2023/02/15 07:09:00;;;;;;;24.97;15.50;;;;;;;-2.66;100.00;97462.44;6160543;23;20020;-87
2023/02/15 07:14:10;;;;;;;22.50;13.83;;;;;;;-2.16;100.00;97454.81;6185401;23;20762;-86
2023/02/15 07:16:37;;;;;;;21.13;13.70;;;;;;;-2.09;100.00;97446.88;6164601;23;20436;-87
2023/02/15 07:19:03;;;;;;;19.93;13.30;;;;;;;-1.85;100.00;97446.03;6189874;23;20016;-87
2023/02/15 07:21:28;;;;;;;18.40;12.13;;;;;;;-1.63;100.00;97455.59;6158658;23;21167;-87
2023/02/15 07:23:57;;;;;;;19.43;12.23;;;;;;;-1.55;100.00;97445.84;6160708;23;20561;-88
2023/02/15 07:26:23;;;;;;;19.73;12.80;;;;;;;-1.28;100.00;97450.00;6158245;23;20040;-88
2023/02/15 07:28:49;;;;;;;18.63;11.90;;;;;;;-1.13;100.00;97447.75;6159775;23;20416;-88
2023/02/15 07:31:14;;;;;;;18.33;12.20;;;;;;;-1.07;100.00;97443.22;6183991;23;20412;-88
2023/02/15 07:33:41;;;;;;;18.23;11.23;;;;;;;-0.62;100.00;97428.56;6158953;23;20044;-86
2023/02/15 07:36:09;;;;;;;19.20;12.17;;;;;;;-0.63;100.00;97434.63;6161285;23;20023;-86
2023/02/15 07:39:01;;;;;;;15.63;10.23;;;;;;;-0.30;100.00;97424.69;6185013;23;20455;-87
2023/02/15 07:41:29;;;;;;;20.50;13.73;;;;;;;0.19;100.00;97425.19;6186276;23;20426;-87
2023/02/15 07:44:04;;;;;;;17.23;10.53;;;;;;;0.43;100.00;97418.91;6161791;23;20392;-87
2023/02/15 07:46:32;;;;;;;14.37;9.57;;;;;;;0.48;100.00;97405.78;6161661;23;20079;-87
2023/02/15 07:49:00;;;;;;;15.63;10.73;;;;;;;0.74;100.00;97414.13;6173840;23;20420;-87
2023/02/15 07:51:35;;;;;;;17.67;10.73;;;;;;;1.60;100.00;97403.97;6173260;23;20458;-86
2023/02/15 07:54:11;;;;;;;19.63;11.47;;;;;;;1.38;100.00;97413.72;6186093;23;20013;-86
2023/02/15 07:56:44;;;;;;;15.50;10.07;;;;;;;1.45;100.00;97403.91;6159995;23;20450;-86
2023/02/15 07:59:10;;;;;;;16.90;10.50;;;;;;;1.47;100.00;97392.53;6160124;23;20024;-86
2023/02/15 08:01:49;;;;;;;15.83;10.77;;;;;;;1.67;100.00;97388.94;6160558;23;20015;-86
2023/02/15 08:04:15;;;;;;;16.03;10.77;;;;;;;1.87;100.00;97386.19;6161213;23;20130;-87
2023/02/15 08:06:40;;;;;;;16.80;11.27;;;;;;;1.98;100.00;97388.28;6161835;23;20942;-87
2023/02/15 08:09:11;;;;;;;16.17;10.17;;;;;;;2.48;100.00;97389.16;6160613;23;20027;-85
2023/02/15 08:11:40;;;;;;;17.70;11.60;;;;;;;2.09;100.00;97388.56;6160077;23;20426;-87
2023/02/15 08:14:15;;;;;;;16.77;11.37;;;;;;;2.60;100.00;97388.50;6184380;23;20400;-86
2023/02/15 08:16:55;;;;;;;17.13;10.63;;;;;;;2.52;100.00;97391.50;6187538;23;20495;-87
2023/02/15 08:19:27;;;;;;;14.90;10.93;;;;;;;2.64;100.00;97387.41;6158731;23;20019;-87
2023/02/15 08:22:02;;;;;;;18.50;10.97;;;;;;;2.83;100.00;97379.47;6159047;23;20430;-88
2023/02/15 08:24:29;;;;;;;18.30;11.30;;;;;;;2.90;100.00;97378.22;6184816;23;20420;-85
2023/02/15 08:26:58;;;;;;;16.83;10.47;;;;;;;3.88;100.00;97372.66;6160646;23;20411;-86
2023/02/15 08:29:29;;;;;;;16.50;11.07;;;;;;;3.78;100.00;97368.91;6159906;23;20427;-87
2023/02/15 08:32:01;;;;;;;15.00;9.77;;;;;;;4.64;100.00;97367.22;6160201;23;20016;-87
2023/02/15 08:34:44;;;;;;;15.77;10.83;;;;;;;4.59;100.00;97368.41;6186052;23;20012;-87
2023/02/15 08:37:10;;;;;;;18.03;11.00;;;;;;;4.80;100.00;97359.28;6184651;23;20444;-87
2023/02/15 08:39:39;;;;;;;13.50;10.07;;;;;;;5.32;100.00;97352.53;6161861;23;20012;-87
2023/02/15 08:42:08;;;;;;;15.80;10.53;;;;;;;4.79;100.00;97354.16;6171738;23;20063;-87
2023/02/15 08:44:33;;;;;;;17.23;9.43;;;;;;;5.25;100.00;97349.47;6161687;23;20009;-86
2023/02/15 08:47:03;;;;;;;15.70;10.07;;;;;;;4.55;100.00;97357.34;6190561;23;20366;-86
2023/02/15 08:49:36;;;;;;;14.23;10.50;;;;;;;6.10;100.00;97348.22;6189816;23;20000;-86
2023/02/15 08:52:04;;;;;;;14.63;9.73;;;;;;;6.59;100.00;97354.44;6167686;23;20025;-87
2023/02/15 08:54:30;;;;;;;15.37;9.97;;;;;;;6.81;100.00;97343.34;6160241;23;20614;-87
2023/02/15 08:56:59;;;;;;;13.57;10.30;;;;;;;6.20;100.00;97350.19;6159432;23;20008;-87
2023/02/15 08:59:26;;;;;;;12.93;9.73;;;;;;;7.43;100.00;97339.75;6159942;23;20016;-87
2023/02/15 09:02:00;;;;;;;13.53;9.97;;;;;;;6.84;100.00;97346.56;6157838;23;20047;-87
2023/02/15 09:04:26;;;;;;;15.07;10.20;;;;;;;7.31;100.00;97344.09;6159679;23;20031;-88
2023/02/15 09:06:53;;;;;;;13.27;10.10;;;;;;;7.83;100.00;97344.66;6152334;23;20750;-87
2023/02/15 09:09:19;;;;;;;12.73;9.53;;;;;;;7.07;100.00;97349.31;6159031;23;20020;-87
2023/02/15 09:11:47;;;;;;;14.60;9.70;;;;;;;7.43;100.00;97348.41;6159100;23;20001;-88
2023/02/15 09:14:16;;;;;;;13.50;10.33;;;;;;;7.44;100.00;97338.78;6158120;23;20095;-88
2023/02/15 09:16:46;;;;;;;13.77;9.30;;;;;;;7.64;100.00;97340.75;6184476;23;20025;-88
2023/02/15 09:19:11;;;;;;;14.00;9.67;;;;;;;7.64;100.00;97338.16;6159529;23;20020;-87
2023/02/15 09:21:38;;;;;;;13.53;10.07;;;;;;;7.28;100.00;97329.47;6158573;23;20008;-88
2023/02/15 09:24:06;;;;;;;12.80;9.83;;;;;;;8.24;100.00;97334.47;6184812;23;20012;-87
2023/02/15 09:26:35;;;;;;;12.67;9.47;;;;;;;8.87;100.00;97336.66;6158646;23;20012;-88
2023/02/15 09:29:03;;;;;;;13.33;9.83;;;;;;;9.34;100.00;97335.47;6160630;23;20012;-88
2023/02/15 09:31:34;;;;;;;12.17;9.30;;;;;;;10.78;100.00;97319.91;6159492;23;20031;-87
2023/02/15 09:34:03;;;;;;;13.07;10.03;;;;;;;8.67;100.00;97340.84;6188188;23;20368;-87
2023/02/15 09:36:35;;;;;;;12.97;8.87;;;;;;;9.33;100.00;97339.06;6165140;23;20416;-88
2023/02/15 09:39:09;;;;;;;13.40;8.80;;;;;;;9.47;100.00;97334.47;6165559;23;20020;-87
2023/02/15 09:41:52;;;;;;;11.70;9.40;;;;;;;10.03;100.00;97336.81;6166944;23;20104;-87
2023/02/15 09:44:39;;;;;;;13.90;10.27;;;;;;;9.45;100.00;97327.53;6168583;23;20012;-87
2023/02/15 09:47:40;;;;;;;12.20;8.57;;;;;;;10.49;100.00;97332.94;6168072;23;20017;-87
2023/02/15 09:50:31;;;;;;;13.53;10.07;;;;;;;10.68;100.00;97330.41;6167504;23;20012;-86
2023/02/15 09:53:34;;;;;;;12.27;9.27;;;;;;;11.05;100.00;97330.63;6169163;23;20022;-87
2023/02/15 09:56:24;;;;;;;13.27;9.53;;;;;;;11.12;100.00;97333.56;6168633;23;20120;-87
2023/02/15 09:59:09;;;;;;;13.33;9.00;;;;;;;10.85;100.00;97334.19;6166930;23;20012;-87
2023/02/15 10:01:54;;;;;;;13.03;9.60;;;;;;;10.56;100.00;97332.31;6163460;23;20096;-88
2023/02/15 10:05:00;;;;;;;13.07;8.73;;;;;;;10.49;100.00;97336.41;6163091;23;20436;-87
2023/02/15 10:07:47;;;;;;;11.07;8.83;;;;;;;10.00;100.00;97331.81;6161966;23;20071;-87
2023/02/15 10:10:44;;;;;;;13.73;9.70;;;;;;;9.65;100.00;97333.78;6160288;23;20040;-87
2023/02/15 10:13:44;;;;;;;11.63;8.23;;;;;;;10.95;100.00;97329.78;6161078;23;20013;-86
2023/02/15 10:16:26;;;;;;;11.60;9.37;;;;;;;11.23;100.00;97327.34;6160748;23;20055;-87
2023/02/15 10:19:12;;;;;;;12.57;9.17;;;;;;;12.03;100.00;97326.25;6186044;23;20020;-87
2023/02/15 10:21:50;;;;;;;11.97;8.07;;;;;;;11.02;100.00;97328.28;6159313;23;20030;-86
2023/02/15 10:24:27;;;;;;;11.50;8.27;;;;;;;11.82;100.00;97325.56;6160932;23;20012;-87
2023/02/15 10:27:04;;;;;;;11.80;8.53;;;;;;;12.44;100.00;97314.50;6182515;23;20012;-86
2023/02/15 10:29:37;;;;;;;12.20;9.20;;;;;;;11.48;100.00;97320.72;6184484;23;20036;-87
2023/02/15 10:32:25;;;;;;;12.70;9.50;;;;;;;10.47;100.00;97322.56;6158607;23;20079;-87
2023/02/15 10:34:57;;;;;;;12.37;9.53;;;;;;;10.87;100.00;97311.22;6159859;23;20067;-87
2023/02/15 10:38:10;;;;;;;12.60;8.90;;;;;;;11.13;100.00;97313.31;6159936;23;20046;-86
2023/02/15 10:41:13;;;;;;;16.10;10.20;;;;;;;11.87;100.00;97305.78;6041150;23;20022;-87
2023/02/15 10:43:56;;;;;;;13.40;9.70;;;;;;;11.32;100.00;97308.09;6043514;23;20010;-86
2023/02/15 10:47:02;;;;;;;11.33;8.97;;;;;;;11.53;100.00;97308.78;6067017;23;20015;-88
2023/02/15 10:49:46;;;;;;;12.30;9.23;;;;;;;10.65;100.00;97306.16;6145623;23;20070;-87
2023/02/15 10:52:48;;;;;;;14.17;9.37;;;;;;;10.31;100.00;97304.63;6158751;23;20042;-86
2023/02/15 10:55:49;;;;;;;13.40;8.93;;;;;;;10.85;100.00;97297.34;6160585;23;20070;-87
2023/02/15 10:58:41;;;;;;;13.63;9.30;;;;;;;10.67;100.00;97288.44;6159637;23;20035;-87
2023/02/15 11:01:30;;;;;;;12.73;8.73;;;;;;;10.92;100.00;97290.56;6159881;23;20395;-87
2023/02/15 11:04:22;;;;;;;13.17;8.93;;;;;;;12.01;100.00;97278.97;6159948;23;20343;-87
2023/02/15 11:06:55;;;;;;;12.53;8.90;;;;;;;11.18;100.00;97277.72;6132610;23;20167;-88
2023/02/15 11:09:22;;;;;;;;;;;;;;;11.42;100.00;97277.31;6161910;23;20051;-87
2023/02/15 11:12:00;;;;;;;13.57;9.30;;;;;;;11.17;100.00;97270.00;6186142;23;19911;-87
2023/02/15 11:14:49;;;;;;;12.97;8.47;;;;;;;11.47;100.00;97275.13;6161740;23;20039;-87
2023/02/15 11:17:20;;;;;;;11.53;8.97;;;;;;;10.83;100.00;97268.56;6162332;23;20103;-88
2023/02/15 11:20:10;;;;;;;14.53;9.47;;;;;;;11.45;100.00;97265.69;6183368;22;20032;-87
2023/02/15 11:22:36;;;;;;;14.13;9.67;;;;;;;11.92;100.00;97271.91;6177364;23;20016;-87
2023/02/15 11:25:14;;;;;;;15.17;9.40;;;;;;;12.63;100.00;97265.25;6160562;23;20073;-87
2023/02/15 11:27:48;;;;;;;12.03;8.57;;;;;;;12.45;100.00;97263.41;6159334;23;20012;-87
2023/02/15 11:30:22;;;;;;;10.87;8.37;;;;;;;13.17;100.00;97259.06;6159979;23;20028;-87
2023/02/15 11:32:54;;;;;;;12.30;8.67;;;;;;;14.32;100.00;97250.22;6159919;23;20016;-87
2023/02/15 11:35:28;;;;;;;12.57;9.00;;;;;;;14.38;100.00;97246.09;6160125;23;20071;-88
2023/02/15 11:38:15;;;;;;;12.70;9.30;;;;;;;13.98;100.00;97244.88;6155125;23;20105;-88
2023/02/15 11:41:07;;;;;;;11.18;7.80;;;;;;;14.69;100.00;97240.28;6179505;23;20009;-87
2023/02/15 11:43:43;;;;;;;14.13;9.57;;;;;;;13.80;98.97;97244.94;6142647;23;20017;-88
2023/02/15 11:46:28;;;;;;;11.93;8.70;;;;;;;14.21;98.48;97247.00;6154665;23;20314;-88
2023/02/15 11:48:54;;;;;;;11.65;9.13;;;;;;;14.87;100.00;97238.38;6156201;23;20017;-89
2023/02/15 11:51:22;;;;;;;12.38;9.80;;;;;;;14.46;97.29;97240.03;6180937;23;20088;-88
2023/02/15 11:53:49;;;;;;;12.07;9.27;;;;;;;15.43;93.61;97236.00;6179803;23;20033;-88
2023/02/15 11:56:22;;;;;;;12.25;9.75;;;;;;;15.12;89.26;97233.97;6154774;23;20013;-88
2023/02/15 11:58:59;;;;;;;11.93;9.48;;;;;;;15.07;86.85;97239.75;6180294;23;20071;-88
2023/02/15 12:01:40;;;;;;;12.88;9.50;;;;;;;15.37;86.18;97228.72;6163267;23;20021;-89
2023/02/15 12:04:18;;;;;;;14.32;10.27;;;;;;;14.34;90.88;97240.28;6189210;23;20024;-88
2023/02/15 12:07:15;;;;;;;17.98;12.60;;;;;;;15.77;84.82;97231.38;6189559;23;20092;-88
2023/02/15 12:10:17;;;;;;;17.70;11.95;;;;;;;16.78;79.31;97232.59;6171854;23;20024;-88
2023/02/15 12:12:43;;;;;;;16.10;10.75;;;;;;;15.41;79.78;97227.38;6157558;23;20038;-88
2023/02/15 12:15:35;;;;;;;11.23;8.60;;;;;;;14.74;82.79;97222.94;6163422;23;20021;-88
2023/02/15 12:18:01;;;;;;;11.73;9.20;;;;;;;16.23;75.54;97214.84;6187588;23;20044;-88
2023/02/15 12:20:48;;;;;;;11.23;8.10;;;;;;;16.91;73.75;97210.78;6155434;23;20005;-88
2023/02/15 12:23:15;;;;;;;15.57;8.80;;;;;;;16.55;71.06;97216.56;6205181;23;20028;-89
2023/02/15 12:26:02;;;;;;;13.45;9.23;;;;;;;15.68;74.09;97210.34;6180169;23;20445;-88
2023/02/15 12:28:43;;;;;;;13.55;9.02;;;;;;;15.56;82.21;97207.19;6181305;23;20511;-89
2023/02/15 12:31:22;;;;;;;16.38;10.32;;;;;;;15.07;77.92;97215.09;6154552;23;20017;-89
2023/02/15 12:33:52;;;;;;;13.52;8.88;;;;;;;16.81;72.77;97205.69;6155671;23;20043;-88
2023/02/15 12:36:57;;;;;;;11.88;8.85;;;;;;;16.01;73.68;97201.31;6156002;23;20020;-89
2023/02/15 12:40:00;;;;;;;12.75;8.25;;;;;;;16.32;73.92;97199.75;6144984;23;20060;-90
2023/02/15 12:43:09;;;;;;;;;;;;;;;;;;;;;
2023/02/15 12:46:27;;;;;;;11.30;8.38;;;;;;;16.52;66.51;97198.31;6181157;23;20413;-89
2023/02/15 12:49:47;;;;;;;19.60;13.70;;;;;;;18.01;64.92;97189.16;6194954;23;20040;-89
2023/02/15 12:53:06;;;;;;;21.75;16.38;;;;;;;17.67;67.29;97185.97;6182737;23;20008;-90
2023/02/15 13:03:49;;;;;;;;;;;;;;;;;;;;;